Terminal Aerodrome Forecast
Issued by NWS Austin/San Antonio, TX

Home | Current Version | Previous Version | Text Only | Print | Product List | Glossary On
Versions: 1 2 3 4 5 6 7 8 9 10 11 12 13 14 15 16 17 18
000
FTUS44 KEWX 271500 AAB
TAFAUS
TAF AMD
KAUS 271548Z 2716/2818 36015G25KT 6SM -RADZ OVC012
      TEMPO 2716/2717 4SM SHRA BR OVC009
     FM272000 36014G24KT P6SM OVC025
     FM280300 36016KT P6SM OVC035=

USA.gov is the U.S. government's official web portal to all federal, state and local government web resources and services.